Cook Springs, Alabama
Current Conditions -  °F | °C
As of 9:15 AM on Monday 24 Nov 2014 (Local Time) from KASN Reporting Station
Broken Clouds Broken Clouds  
Wind Chill: 68°   Ceiling: 2600
Heat Index: 68°   Visibility: 10mi
Dew Point: 58°   Wind: 13mph
Humidity: 70%   Direction: 250°WSW
Pressure: 29.81"   Gusts: 22mph
Location:  33.59°N, 86.39°W
Report Text: KASN 241515Z AUTO 25011G19KT 10SM BKN026 BKN033 20/15 A2981 RMK AO2 LTG DSNT S T02020146
Loading
Personal Weather Stations






























Interactive Weather Map New forecast layout! Learn more

10-Day Weather Forecast

Advertisements
Track Severe Weather on mobile